Eureka, AK

4:18 PM AKST on December 27, 2014 (GMT -0900)
AKDOT Glenn Highway @ Gunsight Mountain MP 11 | Change Station
CLOSE
Current Station
Personal Weather Station
Location: Tatitlek, AK
Elevation: 3234 ft
Nearby Weather Stations

Elev 3234 ft 61.83 °N, 147.41 °W | Updated 48 minutes ago

Overcast
Overcast
11 °F
Feels Like 11 °F
N
2
Wind Variable Wind from NNW
Gusts 4.0 mph

Today
High -- | Low -- °F
--% Chance of Precip.
Yesterday
High -- | Low -- °F
Precip. -- in
10:12 AM 3:27 PM
Waxing Crescent, 42% visible
Pressure 30.59 in
Visibility 7.0 miles
Clouds Overcast 400 ft
Windchill 11 °F
Dew Point 9 °F
Humidity 89%
Rainfall 0.00 in
Snow Depth Not available.
UV 0 out of 12
Pollen Not available.
Air Quality Not available.
Flu Activity Not available.
SPECI PAGK 280106Z AUTO 00000KT 7SM OVC004 M18/M21 A3059 RMK AO2 PRESRR T11831211 TSNO

More Conditions Fewer Conditions

Pressure 30.59 in
Visibility 7.0 miles
Clouds Overcast 400 ft
Windchill 11 °F
Dew Point 9 °F
Humidity 89%
Rainfall 0.00 in
Snow Depth Not available.
UV 0 out of 12
Pollen Not available.
Air Quality Not available.
Flu Activity Not available.
SPECI PAGK 280106Z AUTO 00000KT 7SM OVC004 M18/M21 A3059 RMK AO2 PRESRR T11831211 TSNO

More Conditions Fewer Conditions

10-Day Weather Forecast

Almanac

Astronomy

Dec. 27, 2014 Rise Set
Actual Time
Civil Twilight
Nautical Twilight
Astronomical Twilight
Moon
Length of Visible Light
Length of Day
Tomorrow will be .
, % of the Moon is Illuminated

Today's Extremes

State Highs State Lows

Community

WunderPhotos

Upload Photos

1,781,120 photos uploaded!

WunderBlogs® & News

Nearby

Air Quality

  Air Quality AQ Index Pollutant
Not available.

Snow Depth

Station Depth Elevation

Earthquake Activity

City Distance Mag. Time & Date
Minimum magnitude displayed is 2.5.

Coastal Water Temperatures

Place Temperature

Nearby Weather Stations